Time;durP1;ratioP1;P1;durP2;ratioP2;P2;SDS_P1;SDS_P2;PMS_P1;PMS_P2;Temp;Humidity;BMP_temperature;BMP_pressure;BME280_temperature;BME280_humidity;BME280_pressure;Samples;Min_cycle;Max_cycle;Signal;HPM_P1;HPM_P2
2024/01/09 00:02:13;;;;;;;12.85;5.38;;;;;;;;;;7366803;19;20449;-76
2024/01/09 00:04:38;;;;;;;11.20;5.28;;;;;;;;;;7368001;19;20023;-76
2024/01/09 00:07:04;;;;;;;13.82;6.70;;;;;;;;;;7369414;19;20573;-76
2024/01/09 00:09:29;;;;;;;10.57;5.10;;;;;;;;;;7395727;19;20595;-75
2024/01/09 00:11:55;;;;;;;13.02;6.07;;;;;;;;;;7376605;19;20007;-76
2024/01/09 00:14:20;;;;;;;16.95;5.60;;;;;;;;;;7374271;19;20448;-77
2024/01/09 00:16:45;;;;;;;14.43;5.65;;;;;;;;;;7372861;19;20040;-76
2024/01/09 00:19:11;;;;;;;13.43;5.32;;;;;;;;;;7373911;19;20002;-76
2024/01/09 00:21:38;;;;;;;12.88;5.82;;;;;;;;;;7400743;19;20023;-76
2024/01/09 00:24:03;;;;;;;11.50;5.80;;;;;;;;;;7376185;19;20014;-76
2024/01/09 00:26:29;;;;;;;13.93;5.50;;;;;;;;;;7375252;19;20621;-76
2024/01/09 00:28:54;;;;;;;11.88;6.05;;;;;;;;;;7377875;19;20077;-76
2024/01/09 00:31:19;;;;;;;12.50;5.82;;;;;;;;;;7373103;19;20018;-76
2024/01/09 00:33:45;;;;;;;13.82;5.70;;;;;;;;;;7386181;19;20066;-76
2024/01/09 00:36:10;;;;;;;13.40;5.65;;;;;;;;;;7365590;19;20062;-76
2024/01/09 00:38:35;;;;;;;13.63;5.47;;;;;;;;;;7363705;19;20010;-76
2024/01/09 00:41:01;;;;;;;13.85;6.63;;;;;;;;;;7364509;19;20010;-76
2024/01/09 00:43:26;;;;;;;12.88;6.60;;;;;;;;;;7362928;19;20002;-76
2024/01/09 00:45:51;;;;;;;9.88;4.50;;;;;;;;;;7383591;19;20003;-76
2024/01/09 00:48:17;;;;;;;14.02;6.18;;;;;;;;;;7364008;19;20007;-76
2024/01/09 00:50:42;;;;;;;13.45;6.10;;;;;;;;;;7368497;19;20090;-76
2024/01/09 00:53:07;;;;;;;10.30;5.32;;;;;;;;;;7366739;19;20010;-77
2024/01/09 00:55:33;;;;;;;11.68;5.75;;;;;;;;;;7365504;19;19998;-77
2024/01/09 00:57:58;;;;;;;14.10;6.95;;;;;;;;;;7396997;19;20002;-77
2024/01/09 01:00:23;;;;;;;12.55;6.10;;;;;;;;;;7381770;19;20074;-77
2024/01/09 01:02:49;;;;;;;14.45;5.65;;;;;;;;;;7376290;19;20062;-77
2024/01/09 01:05:17;;;;;;;12.55;5.45;;;;;;;;;;7376775;19;20006;-76
2024/01/09 01:07:43;;;;;;;13.50;6.47;;;;;;;;;;7371909;19;20014;-76
2024/01/09 01:10:13;;;;;;;14.32;5.82;;;;;;;;;;7374518;19;20344;-76
2024/01/09 01:12:39;;;;;;;13.63;5.10;;;;;;;;;;7394986;19;20074;-76
2024/01/09 01:15:05;;;;;;;11.82;5.32;;;;;;;;;;7376816;19;20023;-76
2024/01/09 01:17:30;;;;;;;15.50;6.07;;;;;;;;;;7371542;19;20006;-76
2024/01/09 01:19:55;;;;;;;12.52;6.03;;;;;;;;;;7372253;19;20103;-76
2024/01/09 01:22:21;;;;;;;16.95;6.82;;;;;;;;;;7374809;19;20010;-75
2024/01/09 01:24:46;;;;;;;16.02;7.13;;;;;;;;;;7394461;19;20198;-77
2024/01/09 01:27:11;;;;;;;14.43;6.28;;;;;;;;;;7373859;19;20385;-76
2024/01/09 01:29:37;;;;;;;15.13;6.07;;;;;;;;;;7377999;19;20009;-76
2024/01/09 01:32:02;;;;;;;13.75;6.22;;;;;;;;;;7371179;19;20013;-77
2024/01/09 01:34:28;;;;;;;12.75;6.25;;;;;;;;;;7369992;19;20014;-76
2024/01/09 01:36:53;;;;;;;13.80;6.05;;;;;;;;;;7394984;19;20002;-77
2024/01/09 01:39:18;;;;;;;11.10;5.40;;;;;;;;;;7372900;19;20081;-77
2024/01/09 01:41:47;;;;;;;12.82;6.47;;;;;;;;;;7372967;19;20047;-77
2024/01/09 01:44:17;;;;;;;13.55;5.20;;;;;;;;;;7372565;19;20009;-75
2024/01/09 01:46:45;;;;;;;12.10;5.82;;;;;;;;;;7372076;19;20002;-75
2024/01/09 01:49:12;;;;;;;14.02;6.10;;;;;;;;;;7371964;19;20599;-75
2024/01/09 01:51:38;;;;;;;13.20;5.57;;;;;;;;;;7391729;19;20002;-76
2024/01/09 01:54:03;;;;;;;13.93;4.85;;;;;;;;;;7366682;19;20086;-76
2024/01/09 01:56:30;;;;;;;12.27;5.53;;;;;;;;;;7369699;19;20041;-75
2024/01/09 01:58:55;;;;;;;13.60;4.75;;;;;;;;;;7371137;19;20097;-77
2024/01/09 02:01:20;;;;;;;10.25;4.88;;;;;;;;;;7369846;19;20011;-75
2024/01/09 02:03:46;;;;;;;13.93;6.13;;;;;;;;;;7388777;19;20023;-75
2024/01/09 02:06:12;;;;;;;11.20;5.60;;;;;;;;;;7369323;19;20074;-76
2024/01/09 02:08:39;;;;;;;11.77;5.60;;;;;;;;;;7368934;19;20382;-76
2024/01/09 02:11:04;;;;;;;10.15;5.25;;;;;;;;;;7370267;19;20010;-75
2024/01/09 02:13:30;;;;;;;14.60;5.43;;;;;;;;;;7369499;19;20006;-76
2024/01/09 02:15:55;;;;;;;11.40;5.35;;;;;;;;;;7389712;19;20002;-76
2024/01/09 02:18:20;;;;;;;13.05;5.90;;;;;;;;;;7368897;19;20091;-76
2024/01/09 02:20:46;;;;;;;13.00;5.75;;;;;;;;;;7367918;19;20006;-76
2024/01/09 02:23:11;;;;;;;13.82;6.18;;;;;;;;;;7368206;19;20019;-76
2024/01/09 02:25:37;;;;;;;12.35;5.88;;;;;;;;;;7366314;19;20041;-75
2024/01/09 02:28:11;;;;;;;12.73;5.28;;;;;;;;;;7371494;19;20016;-75
2024/01/09 02:30:37;;;;;;;13.43;5.85;;;;;;;;;;7392450;19;20027;-75
2024/01/09 02:33:04;;;;;;;12.13;5.68;;;;;;;;;;7368914;19;20010;-77
2024/01/09 02:35:29;;;;;;;15.60;6.15;;;;;;;;;;7373857;19;20074;-76
2024/01/09 02:37:54;;;;;;;10.38;5.25;;;;;;;;;;7370787;19;20517;-77
2024/01/09 02:40:22;;;;;;;13.73;5.95;;;;;;;;;;7368406;19;20659;-77
2024/01/09 02:42:47;;;;;;;10.75;5.70;;;;;;;;;;7387329;19;20070;-76
2024/01/09 02:45:13;;;;;;;14.27;5.78;;;;;;;;;;7366190;19;20772;-76
2024/01/09 02:47:38;;;;;;;15.63;6.82;;;;;;;;;;7364241;19;20027;-75
2024/01/09 02:50:07;;;;;;;12.52;5.63;;;;;;;;;;7368783;19;20003;-75
2024/01/09 02:52:32;;;;;;;13.02;5.53;;;;;;;;;;7364256;19;20661;-75
2024/01/09 02:54:58;;;;;;;16.40;6.65;;;;;;;;;;7387011;19;20050;-75
2024/01/09 02:57:23;;;;;;;14.27;5.97;;;;;;;;;;7370466;19;20007;-77
2024/01/09 02:59:48;;;;;;;12.80;6.15;;;;;;;;;;7375166;19;20380;-76
2024/01/09 03:02:14;;;;;;;14.05;6.25;;;;;;;;;;7371014;19;20006;-76
2024/01/09 03:04:39;;;;;;;15.57;6.68;;;;;;;;;;7369602;19;20018;-76
2024/01/09 03:07:04;;;;;;;18.95;7.45;;;;;;;;;;7369574;19;19999;-76
2024/01/09 03:09:32;;;;;;;18.70;6.88;;;;;;;;;;7391750;19;20006;-76
2024/01/09 03:11:57;;;;;;;12.80;5.45;;;;;;;;;;7369833;19;20432;-76
2024/01/09 03:14:22;;;;;;;15.98;6.07;;;;;;;;;;7366889;19;20013;-75
2024/01/09 03:16:48;;;;;;;9.10;4.53;;;;;;;;;;7365792;19;20047;-76
2024/01/09 03:19:14;;;;;;;9.70;5.30;;;;;;;;;;7367214;19;20074;-76
2024/01/09 03:21:40;;;;;;;17.13;6.78;;;;;;;;;;7388743;19;20024;-76
2024/01/09 03:24:05;;;;;;;9.88;4.55;;;;;;;;;;7364358;19;20755;-76
2024/01/09 03:26:30;;;;;;;16.52;6.43;;;;;;;;;;7367674;19;20492;-75
2024/01/09 03:28:56;;;;;;;11.25;5.18;;;;;;;;;;7367471;19;20010;-75
2024/01/09 03:31:23;;;;;;;11.80;5.10;;;;;;;;;;7368963;19;20004;-77
2024/01/09 03:33:49;;;;;;;13.60;5.85;;;;;;;;;;7394070;19;20452;-75
2024/01/09 03:36:14;;;;;;;12.70;6.43;;;;;;;;;;7369054;19;20831;-75
2024/01/09 03:38:43;;;;;;;13.75;5.28;;;;;;;;;;7368357;19;20006;-76
2024/01/09 03:41:09;;;;;;;11.05;5.03;;;;;;;;;;7373124;19;20419;-76
2024/01/09 03:43:35;;;;;;;10.63;4.55;;;;;;;;;;7371549;19;20429;-77
2024/01/09 03:46:00;;;;;;;11.43;5.50;;;;;;;;;;7376417;19;20006;-76
2024/01/09 03:48:25;;;;;;;11.93;5.15;;;;;;;;;;7394171;19;20044;-77
2024/01/09 03:50:51;;;;;;;11.93;5.88;;;;;;;;;;7371353;19;20036;-76
2024/01/09 03:53:16;;;;;;;14.57;6.03;;;;;;;;;;7367887;19;20010;-75
2024/01/09 03:55:43;;;;;;;12.95;5.32;;;;;;;;;;7369928;19;20086;-77
2024/01/09 03:58:09;;;;;;;12.68;5.32;;;;;;;;;;7374803;19;20030;-77
2024/01/09 04:00:34;;;;;;;15.40;6.30;;;;;;;;;;7391006;19;20088;-76
2024/01/09 04:03:01;;;;;;;16.25;6.68;;;;;;;;;;7365601;19;20407;-77
2024/01/09 04:05:26;;;;;;;11.55;5.28;;;;;;;;;;7368757;19;20480;-77
2024/01/09 04:07:52;;;;;;;13.07;6.25;;;;;;;;;;7365849;19;20006;-77
2024/01/09 04:10:17;;;;;;;12.43;5.68;;;;;;;;;;7373270;19;20087;-77
2024/01/09 04:12:42;;;;;;;12.27;5.03;;;;;;;;;;7391146;19;20117;-77
2024/01/09 04:15:08;;;;;;;10.55;4.72;;;;;;;;;;7368199;19;20006;-77
2024/01/09 04:17:33;;;;;;;11.73;4.75;;;;;;;;;;7367054;19;20346;-77
2024/01/09 04:20:01;;;;;;;12.52;4.55;;;;;;;;;;7367292;19;20591;-77
2024/01/09 04:22:26;;;;;;;12.13;4.97;;;;;;;;;;7365596;19;20078;-77
2024/01/09 04:24:51;;;;;;;13.57;5.30;;;;;;;;;;7389130;19;20015;-77
2024/01/09 04:27:17;;;;;;;12.25;5.93;;;;;;;;;;7369153;19;20006;-75
2024/01/09 04:29:42;;;;;;;10.57;4.65;;;;;;;;;;7368440;19;20094;-77
2024/01/09 04:32:08;;;;;;;14.70;5.68;;;;;;;;;;7365762;19;20010;-76
2024/01/09 04:34:33;;;;;;;17.27;6.72;;;;;;;;;;7369184;19;20006;-77
2024/01/09 04:36:58;;;;;;;13.85;5.97;;;;;;;;;;7395561;19;20448;-77
2024/01/09 04:39:24;;;;;;;13.05;5.15;;;;;;;;;;7386885;19;20017;-75
2024/01/09 04:41:49;;;;;;;12.82;5.72;;;;;;;;;;7374358;19;20059;-77
2024/01/09 04:44:14;;;;;;;16.25;5.88;;;;;;;;;;7373909;19;20010;-77
2024/01/09 04:46:40;;;;;;;10.30;4.47;;;;;;;;;;7373629;19;20050;-77
2024/01/09 04:49:05;;;;;;;9.70;4.00;;;;;;;;;;7374056;19;20031;-77
2024/01/09 04:51:31;;;;;;;11.10;4.07;;;;;;;;;;7397188;19;20006;-76
2024/01/09 04:53:57;;;;;;;14.07;5.47;;;;;;;;;;7365198;19;20006;-77
2024/01/09 04:56:22;;;;;;;10.30;4.38;;;;;;;;;;7365872;19;20006;-77
2024/01/09 04:58:53;;;;;;;9.93;5.07;;;;;;;;;;7365170;19;20352;-76
2024/01/09 05:01:18;;;;;;;14.63;5.63;;;;;;;;;;7363959;19;20039;-76
2024/01/09 05:03:46;;;;;;;16.45;5.65;;;;;;;;;;7385123;19;20019;-75
2024/01/09 05:06:11;;;;;;;9.25;4.22;;;;;;;;;;7367653;19;20006;-77
2024/01/09 05:08:37;;;;;;;10.82;5.25;;;;;;;;;;7366027;19;20039;-76
2024/01/09 05:11:02;;;;;;;10.70;4.70;;;;;;;;;;7368604;19;20467;-76
2024/01/09 05:13:28;;;;;;;10.05;4.97;;;;;;;;;;7372014;19;20033;-77
2024/01/09 05:15:53;;;;;;;11.20;4.57;;;;;;;;;;7392546;19;19994;-76
2024/01/09 05:18:19;;;;;;;11.93;4.43;;;;;;;;;;7370223;19;20473;-76
2024/01/09 05:20:44;;;;;;;11.70;4.70;;;;;;;;;;7369616;19;20010;-76
2024/01/09 05:23:09;;;;;;;7.13;3.65;;;;;;;;;;7365670;19;20002;-76
2024/01/09 05:25:35;;;;;;;10.25;4.75;;;;;;;;;;7370448;19;20042;-76
2024/01/09 05:28:00;;;;;;;10.02;4.38;;;;;;;;;;7372410;19;20010;-75
2024/01/09 05:30:25;;;;;;;13.43;4.28;;;;;;;;;;7388438;19;20014;-76
2024/01/09 05:32:51;;;;;;;10.00;4.50;;;;;;;;;;7368720;19;20587;-76
2024/01/09 05:35:16;;;;;;;10.23;4.32;;;;;;;;;;7370359;19;20081;-76
2024/01/09 05:37:41;;;;;;;13.85;5.57;;;;;;;;;;7366028;19;20024;-77
2024/01/09 05:40:08;;;;;;;11.32;5.00;;;;;;;;;;7370727;19;20006;-76
2024/01/09 05:42:33;;;;;;;11.65;5.28;;;;;;;;;;7389918;19;20014;-77
2024/01/09 05:44:58;;;;;;;10.75;4.85;;;;;;;;;;7368906;19;20471;-76
2024/01/09 05:47:24;;;;;;;17.30;5.45;;;;;;;;;;7368640;19;20022;-76
2024/01/09 05:49:49;;;;;;;10.60;4.85;;;;;;;;;;7369219;19;20018;-76
2024/01/09 05:52:15;;;;;;;12.15;5.60;;;;;;;;;;7367536;19;20693;-76
2024/01/09 05:55:07;;;;;;;9.70;5.13;;;;;;;;;;7387377;19;20002;-76
2024/01/09 05:57:32;;;;;;;10.75;5.15;;;;;;;;;;7370294;19;20016;-76
2024/01/09 05:59:58;;;;;;;9.60;4.88;;;;;;;;;;7372018;19;20018;-76
2024/01/09 06:02:27;;;;;;;10.30;4.82;;;;;;;;;;7373788;19;20480;-75
2024/01/09 06:04:52;;;;;;;10.73;4.53;;;;;;;;;;7371172;19;20006;-76
2024/01/09 06:07:18;;;;;;;11.27;5.00;;;;;;;;;;7375164;19;20004;-76
2024/01/09 06:09:43;;;;;;;13.60;5.22;;;;;;;;;;7397262;19;20037;-76
2024/01/09 06:12:09;;;;;;;11.13;4.75;;;;;;;;;;7377634;19;20539;-76
2024/01/09 06:14:35;;;;;;;11.57;5.57;;;;;;;;;;7366233;19;20002;-75
2024/01/09 06:17:00;;;;;;;12.35;5.03;;;;;;;;;;7370055;19;20006;-77
2024/01/09 06:19:25;;;;;;;8.93;4.53;;;;;;;;;;7374848;19;20010;-77
2024/01/09 06:21:51;;;;;;;11.82;5.28;;;;;;;;;;7398370;19;20010;-77
2024/01/09 06:24:16;;;;;;;12.23;4.60;;;;;;;;;;7372911;19;20048;-77
2024/01/09 06:26:42;;;;;;;12.98;5.80;;;;;;;;;;7372608;19;20018;-77
2024/01/09 06:29:07;;;;;;;10.70;5.10;;;;;;;;;;7370653;19;20017;-76
2024/01/09 06:31:33;;;;;;;13.73;5.40;;;;;;;;;;7373260;19;20062;-76
2024/01/09 06:33:58;;;;;;;16.70;5.43;;;;;;;;;;7392105;19;20003;-76
2024/01/09 06:36:23;;;;;;;9.63;4.95;;;;;;;;;;7372785;19;20039;-76
2024/01/09 06:38:49;;;;;;;11.25;5.15;;;;;;;;;;7370350;19;20082;-75
2024/01/09 06:41:14;;;;;;;12.18;4.53;;;;;;;;;;7373187;19;20414;-76
2024/01/09 06:43:39;;;;;;;10.32;4.85;;;;;;;;;;7371776;19;19998;-76
2024/01/09 06:46:06;;;;;;;13.07;5.35;;;;;;;;;;7373730;19;20026;-76
2024/01/09 06:48:31;;;;;;;10.80;4.60;;;;;;;;;;7396752;19;20002;-76
2024/01/09 06:50:56;;;;;;;14.43;5.68;;;;;;;;;;7374145;19;20022;-77
2024/01/09 06:53:21;;;;;;;15.65;5.93;;;;;;;;;;7375095;19;20019;-76
2024/01/09 06:55:47;;;;;;;10.63;4.38;;;;;;;;;;7375544;19;20006;-76
2024/01/09 06:58:12;;;;;;;14.10;5.28;;;;;;;;;;7374577;19;20013;-76
2024/01/09 07:00:38;;;;;;;11.85;4.85;;;;;;;;;;7393982;19;20003;-76
2024/01/09 07:03:03;;;;;;;10.40;4.82;;;;;;;;;;7371025;19;20034;-76
2024/01/09 07:05:29;;;;;;;11.27;4.68;;;;;;;;;;7370899;19;20113;-75
2024/01/09 07:07:54;;;;;;;14.10;4.97;;;;;;;;;;7371457;19;20022;-75
2024/01/09 07:10:19;;;;;;;10.57;4.43;;;;;;;;;;7372533;19;20014;-76
2024/01/09 07:12:45;;;;;;;11.27;4.53;;;;;;;;;;7391759;19;20120;-76
2024/01/09 07:15:13;;;;;;;13.50;5.22;;;;;;;;;;7372600;19;20106;-75
2024/01/09 07:17:39;;;;;;;11.45;4.10;;;;;;;;;;7367655;19;20014;-71
2024/01/09 07:20:05;;;;;;;11.82;5.18;;;;;;;;;;7366962;19;20301;-72
2024/01/09 07:22:30;;;;;;;9.80;4.43;;;;;;;;;;7366686;19;20002;-71
2024/01/09 07:24:55;;;;;;;8.98;3.97;;;;;;;;;;7394271;19;20046;-75
2024/01/09 07:27:21;;;;;;;9.02;4.05;;;;;;;;;;7374056;19;20041;-76
2024/01/09 07:29:46;;;;;;;11.80;5.50;;;;;;;;;;7375325;19;20006;-76
2024/01/09 07:32:11;;;;;;;15.05;5.32;;;;;;;;;;7373890;19;20010;-76
2024/01/09 07:34:37;;;;;;;15.60;5.72;;;;;;;;;;7373433;19;20023;-76
2024/01/09 07:37:02;;;;;;;11.98;4.82;;;;;;;;;;7370096;19;20019;-77
2024/01/09 07:39:27;;;;;;;11.73;4.15;;;;;;;;;;7383466;19;20015;-76
2024/01/09 07:41:53;;;;;;;10.98;4.32;;;;;;;;;;7373808;19;20023;-76
2024/01/09 07:44:20;;;;;;;10.38;5.00;;;;;;;;;;7375845;19;20009;-77
2024/01/09 07:46:46;;;;;;;8.73;4.32;;;;;;;;;;7373364;19;20002;-76
2024/01/09 07:49:11;;;;;;;10.48;3.55;;;;;;;;;;7372862;19;20073;-76
2024/01/09 07:51:36;;;;;;;9.35;4.70;;;;;;;;;;7390421;19;19998;-76
2024/01/09 07:54:03;;;;;;;8.50;4.35;;;;;;;;;;7365992;19;20125;-76
2024/01/09 07:56:29;;;;;;;12.05;4.95;;;;;;;;;;7355078;19;20318;-76
2024/01/09 07:58:54;;;;;;;9.85;4.55;;;;;;;;;;7363266;19;20026;-75
2024/01/09 08:01:20;;;;;;;13.80;5.35;;;;;;;;;;7364049;19;20018;-76
2024/01/09 08:03:45;;;;;;;10.82;4.75;;;;;;;;;;7383203;19;19990;-75
2024/01/09 08:06:16;;;;;;;9.50;4.10;;;;;;;;;;7362373;19;20009;-75
2024/01/09 08:08:42;;;;;;;11.10;4.55;;;;;;;;;;7364044;19;20006;-75
2024/01/09 08:11:08;;;;;;;9.10;4.75;;;;;;;;;;7366191;19;20007;-75
2024/01/09 08:13:35;;;;;;;9.73;4.00;;;;;;;;;;7363260;19;20017;-75
2024/01/09 08:16:00;;;;;;;10.52;4.45;;;;;;;;;;7365033;19;20002;-76
2024/01/09 08:18:26;;;;;;;9.88;4.65;;;;;;;;;;7385403;19;20468;-75
2024/01/09 08:20:51;;;;;;;10.32;4.07;;;;;;;;;;7361779;19;20002;-74
2024/01/09 08:23:16;;;;;;;11.13;4.53;;;;;;;;;;7363890;19;19998;-74
2024/01/09 08:25:42;;;;;;;7.57;3.78;;;;;;;;;;7363432;19;20002;-75
2024/01/09 08:28:08;;;;;;;8.77;4.53;;;;;;;;;;7361509;19;19998;-74
2024/01/09 08:30:34;;;;;;;7.32;3.42;;;;;;;;;;7386216;19;20007;-74
2024/01/09 08:32:59;;;;;;;11.13;4.32;;;;;;;;;;7363296;19;20966;-74
2024/01/09 08:35:24;;;;;;;11.13;4.70;;;;;;;;;;7362698;19;20066;-73
2024/01/09 08:37:50;;;;;;;10.85;4.72;;;;;;;;;;7364229;19;20042;-73
2024/01/09 08:40:15;;;;;;;9.27;3.97;;;;;;;;;;7367038;19;20011;-73
2024/01/09 08:42:40;;;;;;;13.68;4.70;;;;;;;;;;7387454;19;20002;-73
2024/01/09 08:45:08;;;;;;;8.13;4.05;;;;;;;;;;7353043;19;20102;-74
2024/01/09 08:47:33;;;;;;;11.18;4.90;;;;;;;;;;7362985;19;20026;-73
2024/01/09 08:49:59;;;;;;;9.52;4.40;;;;;;;;;;7362717;19;20006;-74
2024/01/09 08:52:25;;;;;;;10.55;4.85;;;;;;;;;;7356773;19;20011;-74
2024/01/09 08:54:52;;;;;;;8.13;4.20;;;;;;;;;;7381800;19;20322;-74
2024/01/09 08:57:18;;;;;;;9.20;4.75;;;;;;;;;;7359232;19;20370;-74
2024/01/09 08:59:44;;;;;;;8.32;4.00;;;;;;;;;;7357977;19;20002;-74
2024/01/09 09:02:09;;;;;;;9.48;4.30;;;;;;;;;;7359055;19;20563;-75
2024/01/09 09:04:34;;;;;;;9.13;4.50;;;;;;;;;;7354825;19;20009;-75
2024/01/09 09:07:00;;;;;;;8.05;3.72;;;;;;;;;;7361493;19;20022;-75
2024/01/09 09:09:25;;;;;;;9.65;4.32;;;;;;;;;;7382830;19;20012;-75
2024/01/09 09:11:50;;;;;;;10.35;4.80;;;;;;;;;;7360846;19;19999;-75
2024/01/09 09:14:16;;;;;;;10.93;4.70;;;;;;;;;;7360123;19;20045;-75
2024/01/09 09:16:43;;;;;;;9.88;4.20;;;;;;;;;;7360491;19;20010;-75
2024/01/09 09:19:08;;;;;;;10.43;4.57;;;;;;;;;;7360360;19;19999;-75
2024/01/09 09:21:33;;;;;;;7.78;3.53;;;;;;;;;;7382470;19;20005;-75
2024/01/09 09:23:59;;;;;;;8.88;4.00;;;;;;;;;;7357830;19;20002;-74
2024/01/09 09:26:24;;;;;;;9.48;3.85;;;;;;;;;;7362522;19;20010;-74
2024/01/09 09:28:50;;;;;;;9.32;4.55;;;;;;;;;;7360428;19;20107;-75
2024/01/09 09:31:16;;;;;;;6.10;3.00;;;;;;;;;;7361266;19;20346;-75
2024/01/09 09:33:42;;;;;;;9.82;5.20;;;;;;;;;;7380640;19;20015;-74
2024/01/09 09:36:08;;;;;;;10.77;4.18;;;;;;;;;;7366775;19;20002;-75
2024/01/09 09:38:33;;;;;;;8.23;3.92;;;;;;;;;;7366861;19;20452;-76
2024/01/09 09:41:05;;;;;;;10.35;3.97;;;;;;;;;;7367935;19;20002;-74
2024/01/09 09:43:33;;;;;;;7.20;3.63;;;;;;;;;;7367425;19;20098;-75
2024/01/09 09:46:01;;;;;;;7.25;3.97;;;;;;;;;;7386009;19;20005;-76
2024/01/09 09:48:27;;;;;;;9.95;4.38;;;;;;;;;;7389719;19;20014;-74
2024/01/09 09:50:54;;;;;;;7.40;3.85;;;;;;;;;;7369002;19;20006;-74
2024/01/09 09:53:22;;;;;;;9.25;3.72;;;;;;;;;;7366201;19;20009;-74
2024/01/09 09:55:47;;;;;;;10.43;4.55;;;;;;;;;;7367152;19;20002;-74
2024/01/09 09:58:13;;;;;;;9.23;4.43;;;;;;;;;;7366827;19;20105;-74
2024/01/09 10:00:38;;;;;;;8.35;4.07;;;;;;;;;;7388941;19;20002;-74
2024/01/09 10:03:08;;;;;;;7.88;4.22;;;;;;;;;;7365000;19;20023;-74
2024/01/09 10:05:38;;;;;;;10.15;4.05;;;;;;;;;;7367480;19;20294;-74
2024/01/09 10:08:07;;;;;;;10.23;4.45;;;;;;;;;;7365080;19;20035;-74
2024/01/09 10:10:32;;;;;;;9.75;4.40;;;;;;;;;;7367358;19;20074;-74
2024/01/09 10:12:58;;;;;;;6.95;3.55;;;;;;;;;;7388631;19;20453;-74
2024/01/09 10:15:23;;;;;;;8.40;3.83;;;;;;;;;;7367684;19;20010;-74
2024/01/09 10:17:48;;;;;;;9.75;4.65;;;;;;;;;;7366163;19;20036;-74
2024/01/09 10:20:15;;;;;;;7.90;3.83;;;;;;;;;;7366994;19;20002;-74
2024/01/09 10:22:41;;;;;;;7.68;3.35;;;;;;;;;;7366154;19;20008;-74
2024/01/09 10:25:08;;;;;;;9.27;4.30;;;;;;;;;;7366566;19;19998;-74
2024/01/09 10:27:37;;;;;;;9.93;4.90;;;;;;;;;;7387843;19;20397;-74
2024/01/09 10:30:04;;;;;;;9.18;3.92;;;;;;;;;;7365821;19;20031;-74
2024/01/09 10:32:32;;;;;;;8.70;4.55;;;;;;;;;;7368074;19;20002;-74
2024/01/09 10:34:57;;;;;;;8.13;4.10;;;;;;;;;;7369179;19;20031;-73
2024/01/09 10:37:24;;;;;;;7.07;3.58;;;;;;;;;;7365820;19;20096;-74
2024/01/09 10:39:50;;;;;;;12.15;4.80;;;;;;;;;;7389382;19;20002;-74
2024/01/09 10:42:16;;;;;;;9.45;4.50;;;;;;;;;;7368822;19;20006;-74
2024/01/09 10:44:42;;;;;;;7.95;4.07;;;;;;;;;;7369708;19;20137;-74
2024/01/09 10:47:13;;;;;;;6.93;3.70;;;;;;;;;;7363314;19;20062;-73
2024/01/09 10:49:43;;;;;;;8.40;4.20;;;;;;;;;;7366666;19;20006;-73
2024/01/09 10:52:18;;;;;;;8.98;4.40;;;;;;;;;;7367195;19;20018;-74
2024/01/09 10:54:47;;;;;;;10.07;3.92;;;;;;;;;;7384890;19;20123;-74
2024/01/09 10:57:16;;;;;;;9.20;4.53;;;;;;;;;;7361910;19;20016;-73
2024/01/09 10:59:45;;;;;;;6.55;3.20;;;;;;;;;;7365230;19;20090;-74
2024/01/09 11:02:21;;;;;;;9.25;4.32;;;;;;;;;;7366006;19;20006;-73
2024/01/09 11:04:47;;;;;;;8.13;4.00;;;;;;;;;;7363591;19;20510;-73
2024/01/09 11:07:14;;;;;;;8.43;3.80;;;;;;;;;;7365143;19;19998;-74
2024/01/09 11:09:45;;;;;;;9.50;4.25;;;;;;;;;;7386981;19;20014;-74
2024/01/09 11:12:20;;;;;;;12.68;4.40;;;;;;;;;;7364323;19;20006;-74
2024/01/09 11:14:50;;;;;;;9.80;4.30;;;;;;;;;;7364634;19;20006;-75
2024/01/09 11:17:17;;;;;;;10.13;4.25;;;;;;;;;;7363345;19;20711;-74
2024/01/09 11:19:43;;;;;;;8.07;4.22;;;;;;;;;;7364424;19;20030;-75
2024/01/09 11:22:18;;;;;;;9.07;3.95;;;;;;;;;;7364121;19;20057;-75
2024/01/09 11:24:56;;;;;;;8.45;4.07;;;;;;;;;;7384381;19;20010;-74
2024/01/09 11:27:21;;;;;;;9.88;4.50;;;;;;;;;;7362822;19;20023;-75
2024/01/09 11:29:52;;;;;;;9.48;4.47;;;;;;;;;;7364826;19;20015;-75
2024/01/09 11:32:19;;;;;;;;;;;;;;;;;;7367362;19;20108;-73
2024/01/09 11:34:45;;;;;;;8.18;3.65;;;;;;;;;;7364279;19;19916;-75
2024/01/09 11:37:18;;;;;;;10.27;5.15;;;;;;;;;;7365150;19;20006;-74
2024/01/09 11:39:43;;;;;;;10.05;4.35;;;;;;;;;;7391835;19;20002;-74
2024/01/09 11:42:10;;;;;;;12.80;4.93;;;;;;;;;;7366645;19;20014;-73
2024/01/09 11:44:36;;;;;;;9.10;4.15;;;;;;;;;;7364308;19;20006;-73
2024/01/09 11:47:02;;;;;;;10.75;4.78;;;;;;;;;;7365570;19;20433;-73
2024/01/09 11:49:27;;;;;;;10.30;4.43;;;;;;;;;;7364773;19;20016;-75
2024/01/09 11:51:55;;;;;;;10.73;4.60;;;;;;;;;;7386356;19;19998;-72
2024/01/09 11:54:21;;;;;;;9.98;4.97;;;;;;;;;;7362145;19;20485;-74
2024/01/09 11:56:48;;;;;;;12.05;5.40;;;;;;;;;;7362177;19;20010;-74
2024/01/09 11:59:17;;;;;;;6.00;3.38;;;;;;;;;;7362413;19;20010;-74
2024/01/09 12:01:43;;;;;;;8.93;4.60;;;;;;;;;;7364323;19;20022;-74
2024/01/09 12:04:09;;;;;;;9.07;4.82;;;;;;;;;;7362321;19;20031;-73
2024/01/09 12:06:34;;;;;;;10.25;4.05;;;;;;;;;;7385289;19;20473;-73
2024/01/09 12:09:00;;;;;;;8.05;4.30;;;;;;;;;;7362300;19;20014;-74
2024/01/09 12:11:25;;;;;;;12.23;5.28;;;;;;;;;;7363485;19;20563;-73
2024/01/09 12:14:01;;;;;;;8.48;3.60;;;;;;;;;;7363463;19;20789;-73
2024/01/09 12:16:29;;;;;;;10.65;4.88;;;;;;;;;;7362718;19;20024;-73
2024/01/09 12:18:57;;;;;;;8.40;3.85;;;;;;;;;;7391375;19;20531;-74
2024/01/09 12:21:25;;;;;;;12.25;3.70;;;;;;;;;;7362062;19;21062;-74
2024/01/09 12:23:52;;;;;;;8.32;3.90;;;;;;;;;;7360731;19;20886;-73
2024/01/09 12:26:20;;;;;;;9.00;3.88;;;;;;;;;;7364109;19;20002;-74
2024/01/09 12:28:47;;;;;;;8.02;4.03;;;;;;;;;;7363401;19;20020;-73
2024/01/09 12:31:16;;;;;;;9.05;4.55;;;;;;;;;;7365397;19;20022;-73
2024/01/09 12:33:42;;;;;;;6.30;2.95;;;;;;;;;;7384463;19;20002;-73
2024/01/09 12:36:07;;;;;;;9.35;4.55;;;;;;;;;;7361412;19;20011;-73
2024/01/09 12:38:33;;;;;;;8.57;4.07;;;;;;;;;;7355700;19;20002;-74
2024/01/09 12:40:59;;;;;;;9.27;3.92;;;;;;;;;;7363554;19;20081;-74
2024/01/09 12:43:25;;;;;;;9.27;4.32;;;;;;;;;;7362396;19;20525;-74
2024/01/09 12:45:51;;;;;;;9.80;4.30;;;;;;;;;;7383373;19;20002;-74
2024/01/09 12:48:16;;;;;;;11.52;4.57;;;;;;;;;;7360416;19;20746;-74
2024/01/09 12:50:41;;;;;;;7.15;3.55;;;;;;;;;;7362505;19;19998;-74
2024/01/09 12:53:08;;;;;;;7.50;3.58;;;;;;;;;;7361781;19;19998;-74
2024/01/09 12:55:33;;;;;;;7.53;3.50;;;;;;;;;;7363384;19;20002;-74
2024/01/09 12:57:58;;;;;;;8.35;4.10;;;;;;;;;;7380962;19;20501;-74
2024/01/09 13:00:27;;;;;;;8.40;3.35;;;;;;;;;;7361421;19;20832;-74
2024/01/09 13:02:52;;;;;;;11.60;4.15;;;;;;;;;;7360587;19;20030;-73
2024/01/09 13:05:18;;;;;;;8.60;3.85;;;;;;;;;;7362184;19;20360;-74
2024/01/09 13:07:44;;;;;;;9.32;4.78;;;;;;;;;;7363703;19;20010;-74
2024/01/09 13:10:10;;;;;;;9.25;4.15;;;;;;;;;;7361097;19;20033;-73
2024/01/09 13:12:36;;;;;;;9.57;3.67;;;;;;;;;;7382590;19;20054;-74
2024/01/09 13:15:02;;;;;;;7.10;3.45;;;;;;;;;;7360550;19;20003;-74
2024/01/09 13:17:27;;;;;;;8.63;3.75;;;;;;;;;;7360058;19;20945;-74
2024/01/09 13:19:54;;;;;;;11.23;4.15;;;;;;;;;;7361958;19;20086;-74
2024/01/09 13:22:20;;;;;;;11.75;4.35;;;;;;;;;;7361434;19;21698;-74
2024/01/09 13:24:45;;;;;;;8.88;3.72;;;;;;;;;;7380792;19;20009;-74
2024/01/09 13:27:11;;;;;;;10.63;3.92;;;;;;;;;;7359083;19;20125;-74
2024/01/09 13:29:36;;;;;;;7.18;3.75;;;;;;;;;;7360703;19;20009;-74
2024/01/09 13:32:01;;;;;;;8.23;3.85;;;;;;;;;;7360599;19;20083;-73
2024/01/09 13:34:26;;;;;;;11.27;4.28;;;;;;;;;;7359198;19;20723;-74
2024/01/09 13:36:55;;;;;;;7.28;3.60;;;;;;;;;;7380672;19;20033;-73
2024/01/09 13:39:23;;;;;;;6.10;3.15;;;;;;;;;;7360746;19;20002;-73
2024/01/09 13:41:48;;;;;;;9.02;3.72;;;;;;;;;;7360020;19;20021;-73
2024/01/09 13:44:13;;;;;;;27.85;4.20;;;;;;;;;;7359609;19;20480;-73
2024/01/09 13:46:39;;;;;;;8.63;4.25;;;;;;;;;;7362692;19;20038;-74
2024/01/09 13:49:04;;;;;;;9.50;4.03;;;;;;;;;;7361113;19;20002;-73
2024/01/09 13:51:30;;;;;;;8.63;4.10;;;;;;;;;;7382554;19;20647;-73
2024/01/09 13:53:56;;;;;;;8.18;3.85;;;;;;;;;;7359391;19;19998;-73
2024/01/09 13:56:21;;;;;;;9.13;4.35;;;;;;;;;;7362242;19;20432;-73
2024/01/09 13:58:46;;;;;;;9.57;4.00;;;;;;;;;;7366340;19;20026;-73
2024/01/09 14:01:12;;;;;;;7.97;3.50;;;;;;;;;;7360756;19;20010;-74
2024/01/09 14:03:37;;;;;;;8.98;3.95;;;;;;;;;;7381201;19;20062;-74
2024/01/09 14:06:04;;;;;;;11.65;3.80;;;;;;;;;;7362560;19;20559;-74
2024/01/09 14:08:31;;;;;;;10.70;4.60;;;;;;;;;;7361639;19;20469;-74
2024/01/09 14:10:57;;;;;;;9.77;3.97;;;;;;;;;;7364411;19;20006;-74
2024/01/09 14:13:22;;;;;;;9.32;4.10;;;;;;;;;;7362427;19;20053;-74
2024/01/09 14:15:48;;;;;;;8.38;3.88;;;;;;;;;;7386232;19;20001;-73
2024/01/09 14:18:14;;;;;;;10.82;4.30;;;;;;;;;;7363069;19;20003;-73
2024/01/09 14:20:39;;;;;;;11.05;4.47;;;;;;;;;;7365492;19;20143;-73
2024/01/09 14:23:05;;;;;;;8.10;4.00;;;;;;;;;;7367010;19;20027;-73
2024/01/09 14:25:30;;;;;;;9.95;4.65;;;;;;;;;;7367812;19;20019;-73
2024/01/09 14:27:55;;;;;;;9.30;4.50;;;;;;;;;;7391011;19;20434;-72
2024/01/09 14:30:21;;;;;;;7.47;4.10;;;;;;;;;;7370922;19;20002;-73